Time;durP1;ratioP1;P1;durP2;ratioP2;P2;SDS_P1;SDS_P2;PMS_P1;PMS_P2;Temp;Humidity;BMP_temperature;BMP_pressure;BME280_temperature;BME280_humidity;BME280_pressure;Samples;Min_cycle;Max_cycle;Signal;HPM_P1;HPM_P2
2023/02/13 00:01:12;;;;;;;;;;;;;;;4.46;77.05;100001.19;5002743;28;19964;-59
2023/02/13 00:03:41;;;;;;;;;;;;;;;4.50;77.14;100004.28;4984426;28;19951;-62
2023/02/13 00:06:09;;;;;;;;;;;;;;;4.47;77.80;100002.00;5012843;28;20413;-57
2023/02/13 00:08:38;;;;;;;;;;;;;;;4.44;77.89;99999.78;5003589;28;20405;-57
2023/02/13 00:11:06;;;;;;;;;;;;;;;4.43;78.10;100008.91;4999788;28;20310;-58
2023/02/13 00:13:35;;;;;;;;;;;;;;;4.36;77.67;100005.41;5014574;28;19942;-57
2023/02/13 00:16:05;;;;;;;;;;;;;;;4.18;78.49;100001.63;5005821;28;20612;-58
2023/02/13 00:18:34;;;;;;;;;;;;;;;4.05;79.20;99995.50;5013392;28;19932;-57
2023/02/13 00:21:04;;;;;;;;;;;;;;;4.04;78.89;99992.00;5015222;28;19948;-62
2023/02/13 00:23:33;;;;;;;;;;;;;;;3.94;79.18;99995.19;5004765;28;20039;-58
2023/02/13 00:26:01;;;;;;;;;;;;;;;3.90;79.77;99995.84;5011878;28;19948;-56
2023/02/13 00:28:29;;;;;;;;;;;;;;;3.88;79.70;99995.19;5009724;28;19967;-59
2023/02/13 00:31:02;;;;;;;;;;;;;;;3.93;79.54;99996.19;4998196;28;20310;-57
2023/02/13 00:33:33;;;;;;;;;;;;;;;3.71;80.07;99994.91;4993558;28;20290;-58
2023/02/13 00:36:08;;;;;;;;;;;;;;;3.77;80.28;99995.91;4996165;28;19935;-57
2023/02/13 00:38:36;;;;;;;;;;;;;;;3.65;80.86;100003.81;4996062;28;19946;-63
2023/02/13 00:41:05;;;;;;;;;;;;;;;3.56;81.13;100008.59;4995417;28;19943;-57
2023/02/13 00:43:34;;;;;;;;;;;;;;;3.57;80.66;100002.22;4984254;28;19936;-59
2023/02/13 00:46:02;;;;;;;;;;;;;;;3.44;81.52;100004.94;5003097;28;20417;-57
2023/02/13 00:48:31;;;;;;;;;;;;;;;3.50;80.92;99998.72;5004387;28;19947;-57
2023/02/13 00:50:59;;;;;;;;;;;;;;;3.36;81.60;99995.28;5002856;28;20302;-57
2023/02/13 00:53:31;;;;;;;;;;;;;;;3.28;81.70;100008.13;4982101;28;19947;-58
2023/02/13 00:55:59;;;;;;;;;;;;;;;3.29;81.97;100009.75;5010742;28;19936;-57
2023/02/13 00:58:27;;;;;;;;;;;;;;;3.25;82.57;100005.84;5028850;28;20455;-58
2023/02/13 01:00:57;;;;;;;;;;;;;;;3.20;82.56;100008.38;5022907;28;19963;-59
2023/02/13 01:03:25;;;;;;;;;;;;;;;3.22;82.55;100009.78;5016406;28;19936;-56
2023/02/13 01:05:53;;;;;;;;;;;;;;;3.12;82.79;100009.41;5027145;28;20312;-57
2023/02/13 01:08:22;;;;;;;;;;;;;;;3.18;81.97;99999.69;5006223;28;19990;-57
2023/02/13 01:10:51;;;;;;;;;;;;;;;3.06;82.33;99997.66;5017966;28;20411;-59
2023/02/13 01:13:44;;;;;;;;;;;;;;;3.10;81.79;100001.56;5021199;28;19939;-57
2023/02/13 01:16:14;;;;;;;;;;;;;;;3.07;81.40;100003.84;5023718;28;20367;-58
2023/02/13 01:18:43;;;;;;;;;;;;;;;3.04;81.09;100004.28;5008581;28;19964;-57
2023/02/13 01:21:15;;;;;;;;;;;;;;;2.96;80.80;99999.97;5014164;28;19959;-57
2023/02/13 01:23:43;;;;;;;;;;;;;;;2.88;81.22;100000.19;5027830;28;19936;-56
2023/02/13 01:26:13;;;;;;;;;;;;;;;2.80;81.18;99997.72;5005731;28;20416;-56
2023/02/13 01:28:41;;;;;;;;;;;;;;;2.58;81.53;100002.50;5027563;28;19950;-56
2023/02/13 01:31:11;;;;;;;;;;;;;;;2.59;82.00;99996.91;5012762;28;20055;-57
2023/02/13 01:33:39;;;;;;;;;;;;;;;2.54;82.28;99999.41;5010395;28;19943;-56
2023/02/13 01:36:08;;;;;;;;;;;;;;;2.55;81.83;100000.22;5031313;28;19940;-62
2023/02/13 01:38:37;;;;;;;;;;;;;;;2.58;81.78;99994.47;5013592;28;20484;-57
2023/02/13 01:41:05;;;;;;;;;;;;;;;2.35;82.26;99989.53;5026899;28;20585;-57
2023/02/13 01:43:45;;;;;;;;;;;;;;;2.45;82.07;99989.94;5019553;28;19925;-57
2023/02/13 01:46:13;;;;;;;;;;;;;;;2.44;82.46;99987.44;5020769;28;19951;-57
2023/02/13 01:48:42;;;;;;;;;;;;;;;2.33;82.29;99997.75;5011857;28;19983;-56
2023/02/13 01:51:10;;;;;;;;;;;;;;;2.39;81.99;99998.78;5025799;28;20310;-57
2023/02/13 01:53:40;;;;;;;;;;;;;;;2.42;81.89;99998.38;5006228;28;19993;-57
2023/02/13 01:56:10;;;;;;;;;;;;;;;2.41;81.75;99994.06;5028500;28;20360;-59
2023/02/13 01:58:38;;;;;;;;;;;;;;;2.42;81.73;99995.72;5022963;28;19955;-58
2023/02/13 02:01:08;;;;;;;;;;;;;;;2.45;81.68;99989.94;5007584;28;19952;-57
2023/02/13 02:03:37;;;;;;;;;;;;;;;2.40;81.66;99981.69;5016271;28;19955;-57
2023/02/13 02:06:09;;;;;;;;;;;;;;;2.35;82.29;99997.56;5007046;28;19940;-56
2023/02/13 02:08:37;;;;;;;;;;;;;;;2.38;81.58;99986.41;5013417;28;20026;-57
2023/02/13 02:11:08;;;;;;;;;;;;;;;2.31;81.62;99990.97;5028449;28;19999;-57
2023/02/13 02:13:40;;;;;;;;;;;;;;;2.21;81.91;99991.38;5026001;28;19943;-62
2023/02/13 02:16:14;;;;;;;;;;;;;;;2.13;81.94;99980.88;5008703;28;19959;-58
2023/02/13 02:18:42;;;;;;;;;;;;;;;2.10;81.96;99975.91;5025431;28;20413;-57
2023/02/13 02:21:16;;;;;;;;;;;;;;;2.14;81.61;99981.69;5009836;28;19944;-57
2023/02/13 02:23:54;;;;;;;;;;;;;;;2.13;81.88;99982.69;5008828;28;19978;-56
2023/02/13 02:26:37;;;;;;;;;;;;;;;2.00;82.16;99978.97;5018237;28;19978;-58
2023/02/13 02:29:12;;;;;;;;;;;;;;;1.97;81.66;99986.59;5007944;28;19974;-57
2023/02/13 02:31:58;;;;;;;;;;;;;;;2.00;81.73;99975.47;5018628;28;19951;-58
2023/02/13 02:34:33;;;;;;;;;;;;;;;1.89;82.03;99984.13;5023989;28;20340;-58
2023/02/13 02:37:05;;;;;;;;;;;;;;;1.86;81.38;99973.81;5018325;28;19939;-58
2023/02/13 02:39:38;;;;;;;;;;;;;;;1.82;81.30;99974.22;5005338;28;19940;-56
2023/02/13 02:42:10;;;;;;;;;;;;;;;1.83;81.13;99980.41;5011623;28;19951;-56
2023/02/13 02:44:40;;;;;;;;;;;;;;;1.81;81.31;99982.44;5021745;28;20030;-58
2023/02/13 02:53:33;;;;;;;;;;;;;;;1.53;81.53;99986.09;5032424;28;20627;-58
2023/02/13 02:56:04;;;;;;;;;;;;;;;1.60;81.46;99983.47;5012232;28;19970;-56
2023/02/13 03:07:01;;;;;;;;;;;;;;;1.56;81.70;99977.66;5029963;28;19950;-58
2023/02/13 03:15:03;;;;;;;;;;;;;;;1.43;81.88;99984.81;5021970;28;19936;-65
2023/02/13 03:23:14;;;;;;;;;;;;;;;1.40;81.96;99987.94;5023299;28;19936;-58
2023/02/13 03:25:49;;;;;;;;;;;;;;;1.31;81.61;99992.63;5025595;28;20545;-58
2023/02/13 03:31:05;;;;;;;;;;;;;;;1.28;81.80;99991.19;4998820;28;19930;-62
2023/02/13 03:33:37;;;;;;;;;;;;;;;1.28;81.88;99995.72;5025104;28;20523;-61
2023/02/13 03:39:03;;;;;;;;;;;;;;;1.16;81.56;99995.44;5024272;28;20430;-57
2023/02/13 03:41:33;;;;;;;;;;;;;;;1.13;81.57;99995.84;5025669;28;19944;-57
2023/02/13 03:44:04;;;;;;;;;;;;;;;1.25;81.55;99996.09;5023398;28;20835;-56
2023/02/13 03:46:34;;;;;;;;;;;;;;;1.21;81.14;99997.53;5018035;28;20006;-58
2023/02/13 03:51:49;;;;;;;;;;;;;;;1.04;81.68;99997.03;5026415;28;20062;-56
2023/02/13 03:54:18;;;;;;;;;;;;;;;0.86;81.84;100004.78;5028736;28;19936;-57
2023/02/13 03:59:33;;;;;;;;;;;;;;;0.82;81.58;100009.69;5008686;28;19925;-58
2023/02/13 04:02:02;;;;;;;;;;;;;;;0.84;81.96;100009.47;5007892;28;20011;-56
2023/02/13 04:04:33;;;;;;;;;;;;;;;0.72;81.73;100015.38;5019761;28;19936;-56
2023/02/13 04:07:03;;;;;;;;;;;;;;;0.63;82.22;100021.06;5026503;28;19940;-56
2023/02/13 04:09:32;;;;;;;;;;;;;;;0.50;82.80;100019.94;4994227;28;19979;-56
2023/02/13 04:12:02;;;;;;;;;;;;;;;0.62;82.61;100014.88;5016590;28;20444;-57
2023/02/13 04:14:32;;;;;;;;;;;;;;;0.52;83.19;100012.56;5019948;28;19940;-58
2023/02/13 04:17:03;;;;;;;;;;;;;;;0.65;82.79;100016.38;5021057;28;19956;-57
2023/02/13 04:19:30;;;;;;;;;;;;;;;0.55;82.81;100014.03;5005107;28;19980;-57
2023/02/13 04:21:59;;;;;;;;;;;;;;;0.54;83.05;100022.25;5006854;28;19955;-56
2023/02/13 04:24:29;;;;;;;;;;;;;;;0.64;83.02;100023.56;5012791;28;19951;-57
2023/02/13 04:27:22;;;;;;;;;;;;;;;0.63;82.65;100015.72;5018541;28;19940;-57
2023/02/13 04:29:54;;;;;;;;;;;;;;;0.55;82.72;100023.91;5020683;28;19947;-56
2023/02/13 04:32:23;;;;;;;;;;;;;;;0.25;83.17;100013.38;5003758;28;19926;-57
2023/02/13 04:34:51;;;;;;;;;;;;;;;0.34;83.19;100014.88;5018403;28;19933;-56
2023/02/13 04:37:19;;;;;;;;;;;;;;;0.30;83.40;100008.28;5028199;28;19993;-58
2023/02/13 04:39:48;;;;;;;;;;;;;;;0.32;83.48;100008.91;5004484;28;20321;-55
2023/02/13 04:42:16;;;;;;;;;;;;;;;0.16;83.95;100003.81;5017261;28;19926;-57
2023/02/13 04:44:46;;;;;;;;;;;;;;;0.19;84.26;100006.13;5009433;28;20027;-56
2023/02/13 04:47:14;;;;;;;;;;;;;;;0.22;84.81;100005.75;5009064;28;19925;-56
2023/02/13 04:49:42;;;;;;;;;;;;;;;0.40;84.22;100008.75;5019118;28;19932;-57
2023/02/13 04:52:10;;;;;;;;;;;;;;;0.40;84.25;100008.75;5003427;28;19966;-57
2023/02/13 04:54:38;;;;;;;;;;;;;;;0.39;83.90;100003.63;5017641;28;20344;-58
2023/02/13 04:57:07;;;;;;;;;;;;;;;0.31;84.23;100007.25;4940537;28;2115216;-56
2023/02/13 04:59:35;;;;;;;;;;;;;;;0.38;83.94;100010.81;5031513;28;20308;-62
2023/02/13 05:02:03;;;;;;;;;;;;;;;0.29;84.35;100009.28;5006496;28;19971;-56
2023/02/13 05:04:32;;;;;;;;;;;;;;;0.51;84.12;100010.06;5028236;28;20152;-60
2023/02/13 05:07:00;;;;;;;;;;;;;;;0.40;83.86;100005.28;5026719;28;19994;-56
2023/02/13 05:09:28;;;;;;;;;;;;;;;0.46;83.75;100016.00;5023237;28;19979;-56
2023/02/13 05:11:56;;;;;;;;;;;;;;;0.45;83.32;100013.53;5023748;28;19979;-56
2023/02/13 05:14:27;;;;;;;;;;;;;;;0.43;83.38;100011.06;5030210;28;19933;-57
2023/02/13 05:16:57;;;;;;;;;;;;;;;0.45;83.82;100011.69;5026568;28;20411;-57
2023/02/13 05:19:24;;;;;;;;;;;;;;;0.46;84.22;100016.00;5033439;28;19929;-56
2023/02/13 05:24:39;;;;;;;;;;;;;;;0.54;83.31;100011.56;5025822;28;19941;-57
2023/02/13 05:27:32;;;;;;;;;;;;;;;0.36;83.17;100012.84;5020881;28;19925;-56
2023/02/13 05:30:03;;;;;;;;;;;;;;;0.37;83.38;100016.34;5018850;28;19964;-57
2023/02/13 05:32:31;;;;;;;;;;;;;;;0.34;83.76;100020.25;5019707;28;19929;-57
2023/02/13 05:34:59;;;;;;;;;;;;;;;0.18;84.00;100018.66;5033271;28;20362;-60
2023/02/13 05:37:31;;;;;;;;;;;;;;;0.42;83.95;100024.59;5033339;28;20412;-56
2023/02/13 05:39:59;;;;;;;;;;;;;;;0.28;84.08;100033.56;5019618;28;19925;-58
2023/02/13 05:42:27;;;;;;;;;;;;;;;0.31;83.64;100028.63;5028640;28;20024;-57
2023/02/13 05:44:55;;;;;;;;;;;;;;;0.36;83.93;100033.41;5029899;28;19925;-56
2023/02/13 05:47:24;;;;;;;;;;;;;;;0.33;84.34;100031.13;5010417;28;19925;-56
2023/02/13 05:49:52;;;;;;;;;;;;;;;0.29;83.81;100036.03;5028964;28;20370;-57
2023/02/13 05:52:21;;;;;;;;;;;;;;;0.17;84.25;100033.06;5028030;28;20394;-57
2023/02/13 05:54:48;;;;;;;;;;;;;;;0.28;84.23;100034.38;5026587;28;19933;-56
2023/02/13 05:57:16;;;;;;;;;;;;;;;0.13;85.02;100038.97;5026588;28;19935;-58
2023/02/13 05:59:45;;;;;;;;;;;;;;;0.32;84.57;100038.34;5025300;28;19951;-56
2023/02/13 06:05:07;;;;;;;;;;;;;;;0.36;83.94;100036.91;5014121;28;19945;-58
2023/02/13 06:07:36;;;;;;;;;;;;;;;0.45;83.85;100046.44;5013265;28;20294;-57
2023/02/13 06:10:06;;;;;;;;;;;;;;;0.44;84.08;100049.31;5015213;28;20304;-56
2023/02/13 06:12:59;;;;;;;;;;;;;;;0.23;84.35;100044.81;5018998;28;20030;-56
2023/02/13 06:15:28;;;;;;;;;;;;;;;0.42;84.58;100052.16;5019092;28;19925;-60
2023/02/13 06:17:56;;;;;;;;;;;;;;;0.36;84.68;100050.28;5010002;28;19924;-56
2023/02/13 06:20:25;;;;;;;;;;;;;;;0.42;84.51;100049.50;5010825;28;19929;-61
2023/02/13 06:23:18;;;;;;;;;;;;;;;0.38;84.12;100047.44;5010274;28;19992;-57
2023/02/13 06:25:46;;;;;;;;;;;;;;;0.56;84.32;100057.66;5031959;28;19939;-57
2023/02/13 06:28:14;;;;;;;;;;;;;;;0.52;83.46;100062.53;5024816;28;19935;-58
2023/02/13 06:30:42;;;;;;;;;;;;;;;0.39;83.66;100057.09;5024574;28;19973;-56
2023/02/13 06:33:11;;;;;;;;;;;;;;;0.54;83.14;100065.03;5028911;28;19929;-58
2023/02/13 06:35:40;;;;;;;;;;;;;;;0.62;82.67;100062.22;5027691;28;19932;-57
2023/02/13 06:38:08;;;;;;;;;;;;;;;0.69;82.91;100065.75;5007864;28;19936;-57
2023/02/13 06:40:43;;;;;;;;;;;;;;;0.65;83.51;100069.88;5030671;28;19955;-57
2023/02/13 06:43:11;;;;;;;;;;;;;;;0.66;83.39;100074.19;5025604;28;19936;-60
2023/02/13 06:45:39;;;;;;;;;;;;;;;0.58;83.55;100071.63;5025017;28;19963;-57
2023/02/13 06:48:07;;;;;;;;;;;;;;;0.77;82.81;100071.81;5026739;28;20363;-56
2023/02/13 06:50:36;;;;;;;;;;;;;;;0.44;82.86;100084.91;5012723;28;19925;-57
2023/02/13 06:53:29;;;;;;;;;;;;;;;0.59;83.40;100082.16;5026479;28;19955;-56
2023/02/13 06:55:59;;;;;;;;;;;;;;;0.42;83.64;100084.25;5029047;28;20030;-58
2023/02/13 06:58:28;;;;;;;;;;;;;;;0.26;83.71;100084.53;5024598;28;19972;-56
2023/02/13 07:00:57;;;;;;;;;;;;;;;0.26;84.01;100090.69;5015236;28;20255;-56
2023/02/13 07:03:25;;;;;;;;;;;;;;;0.45;83.58;100089.25;5025708;28;20327;-63
2023/02/13 07:05:53;;;;;;;;;;;;;;;0.74;83.26;100085.56;5010971;28;19932;-56
2023/02/13 07:08:21;;;;;;;;;;;;;;;0.63;83.12;100085.25;5021840;28;19925;-57
2023/02/13 07:10:50;;;;;;;;;;;;;;;0.62;82.80;100089.78;5005660;28;20513;-56
2023/02/13 07:13:21;;;;;;;;;;;;;;;0.52;83.08;100090.13;5024022;28;20290;-56
2023/02/13 07:15:56;;;;;;;;;;;;;;;0.62;82.67;100091.63;5017182;28;20014;-57
2023/02/13 07:18:25;;;;;;;;;;;;;;;0.55;82.97;100091.59;5005769;28;19947;-57
2023/02/13 07:20:54;;;;;;;;;;;;;;;0.69;82.96;100095.19;5015279;28;19925;-57
2023/02/13 07:23:22;;;;;;;;;;;;;;;0.78;82.82;100094.03;5024863;28;19956;-58
2023/02/13 07:25:52;;;;;;;;;;;;;;;0.95;82.39;100102.59;5027679;28;20409;-61
2023/02/13 07:28:20;;;;;;;;;;;;;;;0.85;81.79;100096.75;5016929;28;19932;-59
2023/02/13 07:30:48;;;;;;;;;;;;;;;0.99;81.51;100091.31;5022463;28;20219;-60
2023/02/13 07:33:16;;;;;;;;;;;;;;;0.72;81.34;100094.81;5019571;28;19994;-57
2023/02/13 07:35:46;;;;;;;;;;;;;;;0.65;81.02;100099.28;5027362;28;19971;-56
2023/02/13 07:38:14;;;;;;;;;;;;;;;0.79;81.36;100103.69;5030096;28;19939;-56
2023/02/13 07:40:42;;;;;;;;;;;;;;;0.84;81.52;100098.59;5029219;28;19956;-59
2023/02/13 07:43:12;;;;;;;;;;;;;;;0.67;81.20;100098.06;5023279;28;19929;-58
2023/02/13 07:45:40;;;;;;;;;;;;;;;0.73;81.47;100102.63;5021151;28;19999;-57
2023/02/13 07:48:09;;;;;;;;;;;;;;;1.08;81.09;100104.56;5028519;28;19997;-57
2023/02/13 07:50:37;;;;;;;;;;;;;;;1.14;80.77;100109.94;5011088;28;19936;-57
2023/02/13 07:53:05;;;;;;;;;;;;;;;1.17;80.04;100109.56;5027441;28;19952;-56
2023/02/13 07:58:27;;;;;;;;;;;;;;;1.08;80.48;100104.56;5016231;28;19929;-57
2023/02/13 08:00:55;;;;;;;;;;;;;;;1.25;79.73;100105.88;5017353;28;20423;-63
2023/02/13 08:03:23;;;;;;;;;;;;;;;1.27;79.85;100104.66;5007642;28;19936;-56
2023/02/13 08:05:51;;;;;;;;;;;;;;;1.25;80.15;100100.53;5020175;28;19947;-56
2023/02/13 08:08:20;;;;;;;;;;;;;;;1.29;80.36;100107.16;5013729;28;19939;-57
2023/02/13 08:13:36;;;;;;;;;;;;;;;1.52;79.85;100109.53;5025919;28;20624;-56
2023/02/13 08:16:04;;;;;;;;;;;;;;;1.69;79.20;100107.34;5014939;28;19925;-57
2023/02/13 08:18:31;;;;;;;;;;;;;;;1.79;78.84;100107.78;5022982;28;19932;-58
2023/02/13 08:21:01;;;;;;;;;;;;;;;1.70;78.85;100114.34;5027387;28;20046;-57
2023/02/13 08:23:29;;;;;;;;;;;;;;;1.98;78.34;100114.28;5021885;28;22180;-58
2023/02/13 08:25:59;;;;;;;;;;;;;;;1.81;78.32;100117.31;5023975;28;19925;-57
2023/02/13 08:28:27;;;;;;;;;;;;;;;1.84;78.21;100111.53;5028840;28;19979;-57
2023/02/13 08:30:56;;;;;;;;;;;;;;;2.08;77.43;100112.03;5020597;28;19932;-56
2023/02/13 08:33:50;;;;;;;;;;;;;;;2.12;77.45;100107.06;5025810;28;19932;-56
2023/02/13 08:36:20;;;;;;;;;;;;;;;1.95;78.04;100106.63;5030281;28;19925;-57
2023/02/13 08:38:48;;;;;;;;;;;;;;;1.82;77.30;100108.22;5026816;28;20293;-57
2023/02/13 08:41:17;;;;;;;;;;;;;;;1.83;77.41;100115.25;5027550;28;20344;-60
2023/02/13 08:43:45;;;;;;;;;;;;;;;1.93;78.10;100109.50;5030621;28;20334;-58
2023/02/13 08:46:15;;;;;;;;;;;;;;;2.06;77.30;100108.72;5018704;28;20420;-57
2023/02/13 08:48:43;;;;;;;;;;;;;;;2.34;76.13;100111.25;5017869;28;20401;-58
2023/02/13 08:51:11;;;;;;;;;;;;;;;2.24;75.86;100106.28;5012583;28;19925;-57
2023/02/13 08:53:39;;;;;;;;;;;;;;;2.41;75.34;100106.72;5026646;28;20026;-57
2023/02/13 08:56:07;;;;;;;;;;;;;;;2.15;76.62;100106.69;5007498;28;19940;-56
2023/02/13 08:58:37;;;;;;;;;;;;;;;2.17;75.85;100112.66;5007887;28;19925;-56
2023/02/13 09:01:05;;;;;;;;;;;;;;;2.37;75.53;100102.78;5007103;28;19962;-57
2023/02/13 09:03:37;;;;;;;;;;;;;;;2.14;75.63;100107.72;5010684;28;19925;-56
2023/02/13 09:06:05;;;;;;;;;;;;;;;2.23;75.96;100103.78;5008838;28;19933;-57
2023/02/13 09:08:34;;;;;;;;;;;;;;;2.48;75.13;100104.88;5012993;28;19944;-57
2023/02/13 09:11:05;;;;;;;;;;;;;;;2.47;75.14;100105.91;5013952;28;19937;-57
2023/02/13 09:13:34;;;;;;;;;;;;;;;2.34;75.19;100106.72;5004051;28;19968;-57
2023/02/13 09:16:02;;;;;;;;;;;;;;;2.36;74.89;100106.50;4991369;28;20204;-56
2023/02/13 09:18:32;;;;;;;;;;;;;;;2.57;73.77;100106.34;4997614;28;19925;-57
2023/02/13 09:21:01;;;;;;;;;;;;;;;2.40;74.30;100104.22;4999119;28;19971;-56
2023/02/13 09:23:30;;;;;;;;;;;;;;;2.37;75.14;100100.13;5010926;28;20392;-57
2023/02/13 09:25:59;;;;;;;;;;;;;;;2.54;73.75;100106.72;5004653;28;19940;-57
2023/02/13 09:28:27;;;;;;;;;;;;;;;2.42;74.61;100103.00;5019431;28;19947;-57
2023/02/13 09:30:55;;;;;;;;;;;;;;;2.48;74.81;100102.19;5009260;28;20368;-63
2023/02/13 09:33:26;;;;;;;;;;;;;;;2.43;75.11;100099.28;5017696;28;20021;-57
2023/02/13 09:35:55;;;;;;;;;;;;;;;2.60;74.62;100103.22;5009317;28;20373;-56
2023/02/13 09:38:25;;;;;;;;;;;;;;;2.57;75.28;100106.34;5010315;28;20026;-58
2023/02/13 09:40:55;;;;;;;;;;;;;;;2.80;74.88;100097.03;5003824;28;20007;-58
2023/02/13 09:43:28;;;;;;;;;;;;;;;2.87;74.96;100105.91;5001582;28;20003;-58
2023/02/13 09:45:57;;;;;;;;;;;;;;;3.09;74.80;100104.66;5008152;28;19960;-57
2023/02/13 09:48:51;;;;;;;;;;;;;;;3.05;74.40;100106.13;5004507;28;19970;-58
2023/02/13 09:51:19;;;;;;;;;;;;;;;3.17;73.78;100108.16;5008581;28;20039;-58
2023/02/13 09:53:51;;;;;;;;;;;;;;;3.31;73.84;100107.94;4981119;28;20380;-57
2023/02/13 09:56:22;;;;;;;;;;;;;;;3.39;73.14;100104.19;5005727;28;19926;-57
2023/02/13 09:58:52;;;;;;;;;;;;;;;3.45;73.83;100103.34;5026765;28;20028;-57
2023/02/13 10:01:22;;;;;;;;;;;;;;;3.62;72.84;100104.53;5024794;28;19936;-58
2023/02/13 10:03:52;;;;;;;;;;;;;;;3.63;72.72;100106.19;5026736;28;19933;-58
2023/02/13 10:06:21;;;;;;;;;;;;;;;3.69;72.99;100104.50;5023871;28;19936;-57
2023/02/13 10:09:01;;;;;;;;;;;;;;;3.56;73.20;100108.06;5010551;28;20016;-57
2023/02/13 10:11:34;;;;;;;;;;;;;;;3.74;72.41;100103.88;5030632;28;19932;-57
2023/02/13 10:14:05;;;;;;;;;;;;;;;3.78;72.11;100105.94;5036890;28;19955;-58
2023/02/13 10:16:34;;;;;;;;;;;;;;;3.93;71.70;100098.38;5008241;28;20336;-59
2023/02/13 10:19:03;;;;;;;;;;;;;;;3.95;71.81;100092.81;5028546;28;19960;-58
2023/02/13 10:21:36;;;;;;;;;;;;;;;4.15;71.58;100092.69;5030428;28;20382;-56
2023/02/13 10:24:07;;;;;;;;;;;;;;;4.39;70.75;100093.78;5025877;28;19940;-57
2023/02/13 10:26:45;;;;;;;;;;;;;;;4.45;70.46;100092.91;5029788;28;19932;-57
2023/02/13 10:32:02;;;;;;;;;;;;;;;4.82;69.11;100098.44;5016630;28;19980;-57
2023/02/13 10:34:34;;;;;;;;;;;;;;;4.96;69.56;100100.81;5029778;28;19933;-57
2023/02/13 10:37:03;;;;;;;;;;;;;;;5.20;68.62;100091.03;5031830;28;19949;-58
2023/02/13 10:39:32;;;;;;;;;;;;;;;5.20;68.20;100093.72;5029563;28;19933;-58
2023/02/13 10:42:02;;;;;;;;;;;;;;;5.06;68.79;100089.53;5023088;28;19929;-59
2023/02/13 10:44:36;;;;;;;;;;;;;;;5.18;68.44;100090.44;5027493;28;19926;-57
2023/02/13 10:47:08;;;;;;;;;;;;;;;5.17;68.44;100091.50;5020725;28;19956;-57
2023/02/13 10:49:47;;;;;;;;;;;;;;;5.03;69.12;100084.56;5035210;28;19925;-57
2023/02/13 10:52:18;;;;;;;;;;;;;;;5.29;68.77;100085.38;5022920;28;19925;-57
2023/02/13 10:55:11;;;;;;;;;;;;;;;5.48;68.35;100092.38;5030343;28;19925;-58
2023/02/13 10:57:45;;;;;;;;;;;;;;;5.56;67.10;100094.81;5014313;28;19929;-57
2023/02/13 11:00:13;;;;;;;;;;;;;;;5.59;67.34;100086.25;5002116;28;20287;-57
2023/02/13 11:02:42;;;;;;;;;;;;;;;5.67;67.49;100085.97;5009975;28;19930;-60
2023/02/13 11:05:14;;;;;;;;;;;;;;;5.84;67.26;100079.94;5009662;28;19925;-57
2023/02/13 11:08:09;;;;;;;;;;;;;;;5.91;66.74;100084.25;5010044;28;20364;-57
2023/02/13 11:10:39;;;;;;;;;;;;;;;5.93;66.52;100079.44;5007590;28;20445;-57
2023/02/13 11:13:15;;;;;;;;;;;;;;;6.05;66.44;100082.19;5012015;28;19944;-57
2023/02/13 11:15:43;;;;;;;;;;;;;;;6.10;66.45;100082.31;5003050;28;20019;-58
2023/02/13 11:18:13;;;;;;;;;;;;;;;6.26;66.23;100065.47;5004056;28;19948;-59
2023/02/13 11:20:43;;;;;;;;;;;;;;;6.20;65.53;100063.69;5011593;28;19989;-58
2023/02/13 11:23:17;;;;;;;;;;;;;;;6.43;65.36;100059.41;4986536;28;19995;-57
2023/02/13 11:25:55;;;;;;;;;;;;;;;6.46;65.60;100061.66;5002827;28;21691;-58
2023/02/13 11:28:24;;;;;;;;;;;;;;;6.39;65.98;100059.06;5016233;28;19935;-61
2023/02/13 11:30:52;;;;;;;;;;;;;;;6.37;65.82;100058.47;5000200;28;19967;-57
2023/02/13 11:33:45;;;;;;;;;;;;;;;6.57;65.03;100058.16;4991280;28;19936;-57
2023/02/13 11:36:17;;;;;;;;;;;;;;;6.52;64.92;100061.56;5021007;28;19940;-57
2023/02/13 11:38:46;;;;;;;;;;;;;;;6.63;64.94;100062.63;5003967;28;19936;-57
2023/02/13 11:41:18;;;;;;;;;;;;;;;6.69;64.86;100052.75;5007291;28;19940;-57
2023/02/13 11:43:48;;;;;;;;;;;;;;;6.69;65.19;100053.59;5007320;28;19933;-57
2023/02/13 11:46:20;;;;;;;;;;;;;;;6.58;65.22;100054.41;5002258;28;19926;-57
2023/02/13 11:48:57;;;;;;;;;;;;;;;6.72;65.19;100049.63;5003225;28;20627;-57
2023/02/13 11:51:39;;;;;;;;;;;;;;;6.77;64.93;100050.56;4999017;28;20358;-57
2023/02/13 11:54:11;;;;;;;;;;;;;;;7.04;64.45;100050.09;5008489;28;20414;-58
2023/02/13 11:56:48;;;;;;;;;;;;;;;6.99;64.52;100044.56;5014746;28;19925;-57
2023/02/13 11:59:32;;;;;;;;;;;;;;;7.04;64.38;100047.38;5028713;28;19932;-58
2023/02/13 12:02:04;;;;;;;;;;;;;;;7.21;64.04;100045.59;5020902;28;20019;-57
2023/02/13 12:04:32;;;;;;;;;;;;;;;7.22;63.99;100039.13;5027537;28;19934;-57
2023/02/13 12:07:01;;;;;;;;;;;;;;;7.44;63.28;100036.63;5036330;28;19936;-57
2023/02/13 12:09:29;;;;;;;;;;;;;;;7.42;63.89;100037.94;5035648;28;20012;-57
2023/02/13 12:12:01;;;;;;;;;;;;;;;7.46;63.73;100031.81;5029824;28;19933;-57
2023/02/13 12:14:30;;;;;;;;;;;;;;;7.48;63.29;100031.56;5011862;28;19929;-58
2023/02/13 12:17:00;;;;;;;;;;;;;;;7.60;63.39;100027.75;5027400;28;19925;-57
2023/02/13 12:19:29;;;;;;;;;;;;;;;7.54;63.30;100017.91;5027501;28;19987;-64
2023/02/13 12:22:02;;;;;;;;;;;;;;;7.56;63.30;100007.69;5025506;28;20359;-57
2023/02/13 12:24:34;;;;;;;;;;;;;;;7.72;62.96;100013.38;5014390;28;19925;-57
2023/02/13 12:27:06;;;;;;;;;;;;;;;7.76;62.35;100003.72;5017872;28;19936;-58
2023/02/13 12:32:42;;;;;;;;;;;;;;;7.88;61.60;99990.94;5031451;28;19932;-57
2023/02/13 12:35:28;;;;;;;;;;;;;;;7.97;61.94;99991.38;5034207;28;19960;-57
2023/02/13 12:40:56;;;;;;;;;;;;;;;8.05;61.51;99985.59;5031994;28;19979;-57
2023/02/13 12:43:37;;;;;;;;;;;;;;;8.17;61.04;99980.09;5024843;28;19963;-58
2023/02/13 12:46:09;;;;;;;;;;;;;;;8.37;60.55;99978.56;5029674;28;19959;-59
2023/02/13 12:48:39;;;;;;;;;;;;;;;8.47;60.51;99974.38;5031635;28;19940;-57
2023/02/13 12:51:10;;;;;;;;;;;;;;;8.51;60.04;99976.34;5032908;28;19944;-59
2023/02/13 12:53:41;;;;;;;;;;;;;;;8.57;59.26;99975.34;5020876;28;20376;-57
2023/02/13 12:56:15;;;;;;;;;;;;;;;8.63;58.98;99968.16;5020864;28;19925;-57
2023/02/13 12:58:55;;;;;;;;;;;;;;;8.77;58.12;99968.59;5026562;28;19959;-58
2023/02/13 13:01:26;;;;;;;;;;;;;;;8.76;57.62;99965.06;5025772;28;19983;-61
2023/02/13 13:04:00;;;;;;;;;;;;;;;8.67;57.67;99963.84;5023531;28;19940;-57
2023/02/13 13:06:35;;;;;;;;;;;;;;;8.62;58.02;99953.75;5024772;28;19946;-64
2023/02/13 13:09:07;;;;;;;;;;;;;;;8.73;57.64;99957.44;5029873;28;20016;-58
2023/02/13 13:11:58;;;;;;;;;;;;;;;8.75;57.08;99954.50;5019223;28;19936;-58
2023/02/13 13:14:30;;;;;;;;;;;;;;;8.62;57.86;99961.88;5022566;28;19936;-58
2023/02/13 13:16:59;;;;;;;;;;;;;;;8.79;57.34;99947.47;5023794;28;19966;-58
2023/02/13 13:19:30;;;;;;;;;;;;;;;8.86;56.75;99951.66;5033957;28;19935;-61
2023/02/13 13:21:59;;;;;;;;;;;;;;;8.88;57.17;99956.84;5035526;28;19982;-57
2023/02/13 13:24:32;;;;;;;;;;;;;;;8.83;56.96;99952.16;5032317;28;19939;-62
2023/02/13 13:27:00;;;;;;;;;;;;;;;8.86;56.87;99951.66;5045532;28;20006;-59
2023/02/13 13:29:32;;;;;;;;;;;;;;;8.81;57.08;99948.88;5035579;28;19947;-64
2023/02/13 13:32:01;;;;;;;;;;;;;;;8.79;57.34;99945.63;5029014;28;19956;-65
2023/02/13 13:37:23;;;;;;;;;;;;;;;8.88;56.26;99946.81;5029652;28;19997;-58
2023/02/13 13:39:53;;;;;;;;;;;;;;;8.92;56.49;99939.00;5028897;28;20030;-57
2023/02/13 13:42:23;;;;;;;;;;;;;;;9.00;56.38;99949.44;5032767;28;19939;-58
2023/02/13 13:45:01;;;;;;;;;;;;;;;9.05;56.66;99948.66;5031982;28;19943;-58
2023/02/13 13:47:34;;;;;;;;;;;;;;;9.08;55.80;99945.44;5026355;28;19955;-58
2023/02/13 13:50:04;;;;;;;;;;;;;;;9.06;56.23;99942.19;5025194;28;19961;-59
2023/02/13 13:53:05;;;;;;;;;;;;;;;8.97;56.77;99935.53;5028035;28;20017;-58
2023/02/13 13:55:58;;;;;;;;;;;;;;;8.86;57.35;99931.88;5028940;28;20398;-59
2023/02/13 13:58:31;;;;;;;;;;;;;;;8.88;57.40;99927.00;5030115;28;19998;-58
2023/02/13 14:01:23;;;;;;;;;;;;;;;8.92;56.79;99926.28;5027881;28;19959;-58
2023/02/13 14:03:53;;;;;;;;;;;;;;;8.95;56.75;99924.97;5030137;28;19969;-57
2023/02/13 14:06:22;;;;;;;;;;;;;;;8.88;57.54;99927.84;5031072;28;20324;-57
2023/02/13 14:09:00;;;;;;;;;;;;;;;8.83;57.23;99925.06;5024918;28;19929;-57
2023/02/13 14:11:30;;;;;;;;;;;;;;;8.93;56.63;99922.47;5010875;28;19961;-66